createdAt,value
2022-08-05T00:00:48.428Z,62.69
2022-08-05T00:03:19.153Z,62.29
2022-08-05T00:06:05.196Z,62.39
2022-08-05T00:08:37.316Z,62.84
2022-08-05T00:11:20.828Z,62.94
2022-08-05T00:13:57.297Z,63.26
2022-08-05T00:16:35.379Z,62.91
2022-08-05T00:19:08.174Z,63.08
2022-08-05T00:21:36.760Z,63.44
2022-08-05T00:24:10.311Z,63.21
2022-08-05T00:26:46.698Z,63.18
2022-08-05T00:29:22.336Z,63.56
2022-08-05T00:32:10.193Z,63.55
2022-08-05T00:34:54.891Z,63.70
2022-08-05T00:37:51.285Z,63.51
2022-08-05T00:40:27.115Z,63.90
2022-08-05T00:42:59.716Z,63.69
2022-08-05T00:45:43.168Z,63.87
2022-08-05T00:48:15.422Z,64.16
2022-08-05T00:50:47.406Z,64.09
2022-08-05T00:54:01.325Z,64.07
2022-08-05T00:56:09.899Z,63.90
2022-08-05T00:58:42.494Z,64.12
2022-08-05T01:01:15.169Z,64.46
2022-08-05T01:03:53.710Z,64.38
2022-08-05T01:06:22.380Z,64.47
2022-08-05T01:09:01.156Z,64.32
2022-08-05T01:11:37.340Z,64.27
2022-08-05T01:14:18.158Z,64.74
2022-08-05T01:17:05.962Z,64.45
2022-08-05T01:20:02.088Z,64.71
2022-08-05T01:22:47.286Z,64.51
2022-08-05T01:25:53.368Z,65.02
2022-08-05T01:28:39.495Z,64.60
2022-08-05T01:31:16.807Z,64.96
2022-08-05T01:33:53.517Z,65.11
2022-08-05T01:36:28.697Z,65.08
2022-08-05T01:39:00.940Z,65.19
2022-08-05T01:41:35.460Z,65.51
2022-08-05T01:44:09.718Z,65.53
2022-08-05T01:46:41.943Z,65.78
2022-08-05T01:49:23.840Z,65.81
2022-08-05T01:51:58.228Z,65.70
2022-08-05T01:54:33.438Z,65.61
2022-08-05T01:58:10.551Z,65.64
2022-08-05T01:59:59.594Z,65.40
2022-08-05T02:02:34.024Z,65.94
2022-08-05T02:05:11.755Z,66.11
2022-08-05T02:07:42.979Z,66.19
2022-08-05T02:10:29.028Z,66.56
2022-08-05T02:13:04.679Z,66.57
2022-08-05T02:15:45.542Z,66.52
2022-08-05T02:18:31.727Z,66.11
2022-08-05T02:21:14.989Z,66.66
2022-08-05T02:23:48.387Z,66.70
2022-08-05T02:26:23.282Z,66.24
2022-08-05T02:28:58.379Z,66.73
2022-08-05T02:31:34.783Z,66.42
2022-08-05T02:34:11.759Z,66.79
2022-08-05T02:36:43.654Z,66.11
2022-08-05T02:39:16.272Z,66.39
2022-08-05T02:42:01.088Z,66.41
2022-08-05T02:44:32.982Z,66.48
2022-08-05T02:47:08.998Z,66.31
2022-08-05T02:49:42.138Z,66.30
2022-08-05T02:52:29.488Z,66.85
2022-08-05T02:55:01.735Z,67.10
2022-08-05T02:58:10.619Z,66.86
2022-08-05T03:00:25.494Z,67.25
2022-08-05T03:02:58.802Z,67.22
2022-08-05T03:06:54.783Z,66.86
2022-08-05T03:08:27.045Z,67.12
2022-08-05T03:11:53.199Z,67.54
2022-08-05T03:13:52.197Z,67.58
2022-08-05T03:16:33.475Z,67.28
2022-08-05T03:19:17.087Z,67.52
2022-08-05T03:21:54.756Z,67.12
2022-08-05T03:24:30.379Z,67.58
2022-08-05T03:26:59.854Z,67.64
2022-08-05T03:29:45.407Z,67.38
2022-08-05T03:32:19.345Z,67.37
2022-08-05T03:34:50.987Z,67.74
2022-08-05T03:37:22.619Z,68.16
2022-08-05T03:40:01.904Z,68.15
2022-08-05T03:42:41.769Z,68.33
2022-08-05T03:45:23.362Z,68.12
2022-08-05T03:47:56.829Z,68.20
2022-08-05T03:50:34.027Z,68.77
2022-08-05T03:55:33.957Z,68.03
2022-08-05T03:56:11.946Z,68.13
2022-08-05T03:58:48.732Z,68.09
2022-08-05T04:01:22.903Z,68.56
2022-08-05T04:04:05.482Z,68.92
2022-08-05T04:06:47.378Z,68.83
2022-08-05T04:09:20.347Z,68.39
2022-08-05T04:11:56.862Z,68.89
2022-08-05T04:14:29.770Z,69.00
2022-08-05T04:17:02.962Z,68.94
2022-08-05T04:19:41.406Z,68.81
2022-08-05T04:22:14.622Z,69.32
2022-08-05T04:24:52.628Z,69.15
2022-08-05T04:27:33.350Z,69.32
2022-08-05T04:30:15.658Z,69.15
2022-08-05T04:32:44.276Z,69.47
2022-08-05T04:35:17.578Z,69.62
2022-08-05T04:38:02.260Z,69.20
2022-08-05T04:40:35.144Z,69.53
2022-08-05T04:43:07.014Z,69.36
2022-08-05T04:45:48.832Z,69.28
2022-08-05T04:48:27.206Z,69.34
2022-08-05T04:51:03.304Z,69.25
2022-08-05T04:53:39.117Z,69.34
2022-08-05T04:56:32.913Z,69.41
2022-08-05T04:58:57.723Z,69.01
2022-08-05T05:01:33.710Z,69.18
2022-08-05T05:04:16.221Z,69.18
2022-08-05T05:06:49.371Z,68.94
2022-08-05T05:09:26.400Z,68.93
2022-08-05T05:12:00.273Z,68.87
2022-08-05T05:14:32.361Z,68.37
2022-08-05T05:17:01.355Z,68.73
2022-08-05T05:19:36.900Z,68.20
2022-08-05T05:22:24.032Z,68.67
2022-08-05T05:24:57.842Z,68.00
2022-08-05T05:27:44.614Z,67.22
2022-08-05T05:30:29.736Z,66.87
2022-08-05T05:33:03.766Z,67.20
2022-08-05T05:35:46.268Z,67.35
2022-08-05T05:38:26.936Z,66.69
2022-08-05T05:40:56.550Z,66.66
2022-08-05T05:43:54.371Z,66.20
2022-08-05T05:46:17.360Z,66.41
2022-08-05T05:48:48.168Z,65.29
2022-08-05T05:51:24.637Z,63.08
2022-08-05T05:53:58.686Z,62.06
2022-08-05T05:56:32.602Z,59.98
2022-08-05T05:59:06.532Z,60.28
2022-08-05T06:01:38.699Z,60.02
2022-08-05T06:04:11.852Z,59.89
2022-08-05T06:06:43.089Z,60.03
2022-08-05T06:09:17.312Z,59.95
2022-08-05T06:12:01.354Z,59.79
2022-08-05T06:14:33.285Z,59.77
2022-08-05T06:17:21.897Z,60.20
2022-08-05T06:19:56.831Z,60.27
2022-08-05T06:22:30.226Z,60.31
2022-08-05T06:25:24.527Z,60.17
2022-08-05T06:28:11.645Z,60.59
2022-08-05T06:30:43.893Z,60.62
2022-08-05T06:33:12.463Z,60.28
2022-08-05T06:36:07.749Z,60.33
2022-08-05T06:38:37.203Z,59.72
2022-08-05T06:41:07.785Z,60.19
2022-08-05T06:43:51.494Z,60.04
2022-08-05T06:46:30.289Z,59.88
2022-08-05T06:49:01.102Z,59.80
2022-08-05T06:51:31.434Z,59.35
2022-08-05T06:54:02.458Z,59.51
2022-08-05T06:56:34.265Z,59.36
2022-08-05T06:59:08.533Z,59.43
2022-08-05T07:01:40.823Z,59.21
2022-08-05T07:04:13.924Z,58.89
2022-08-05T07:06:42.971Z,59.02
2022-08-05T07:09:11.836Z,58.84
2022-08-05T07:11:44.603Z,58.76
2022-08-05T07:14:37.078Z,58.67
2022-08-05T07:17:58.676Z,58.71
2022-08-05T07:22:47.849Z,58.47
2022-08-05T07:25:53.829Z,58.33
2022-08-05T07:28:11.483Z,58.40
2022-08-05T07:30:40.804Z,57.93
2022-08-05T07:33:16.427Z,58.21
2022-08-05T07:36:03.319Z,57.90
2022-08-05T07:38:43.482Z,57.90
2022-08-05T07:42:13.302Z,57.55
2022-08-05T07:44:14.531Z,57.10
2022-08-05T07:46:49.617Z,56.95
2022-08-05T07:49:20.007Z,57.29
2022-08-05T07:51:54.629Z,57.05
2022-08-05T07:54:31.130Z,56.70
2022-08-05T07:57:22.640Z,56.81
2022-08-05T07:59:52.536Z,56.75
2022-08-05T08:02:26.393Z,56.75
2022-08-05T08:05:00.074Z,56.42
2022-08-05T08:07:29.374Z,56.29
2022-08-05T08:10:09.044Z,55.97
2022-08-05T08:12:49.432Z,55.24
2022-08-05T08:15:37.292Z,55.37
2022-08-05T08:18:13.906Z,55.25
2022-08-05T08:21:01.885Z,55.25
2022-08-05T08:24:03.054Z,55.10
2022-08-05T08:26:29.318Z,55.00
2022-08-05T08:29:22.255Z,54.75
2022-08-05T08:31:49.384Z,54.75
2022-08-05T08:34:18.950Z,54.28
2022-08-05T08:37:04.705Z,54.47
2022-08-05T08:39:37.400Z,53.96
2022-08-05T08:42:34.338Z,53.77
2022-08-05T08:45:24.392Z,53.77
2022-08-05T08:48:07.730Z,53.39
2022-08-05T08:51:22.115Z,53.15
2022-08-05T08:53:37.095Z,52.71
2022-08-05T08:56:07.589Z,52.70
2022-08-05T08:58:43.268Z,51.79
2022-08-05T09:01:16.637Z,51.54
2022-08-05T09:03:47.492Z,50.89
2022-08-05T09:06:21.270Z,50.41
2022-08-05T09:08:52.939Z,49.49
2022-08-05T09:11:53.637Z,49.08
2022-08-05T09:14:57.115Z,48.44
2022-08-05T09:17:02.081Z,47.89
2022-08-05T09:19:36.699Z,47.43
2022-08-05T09:22:31.923Z,46.65
2022-08-05T09:25:13.869Z,45.94
2022-08-05T09:28:04.385Z,45.33
2022-08-05T09:30:35.153Z,44.92
2022-08-05T09:33:07.958Z,44.67
2022-08-05T09:35:36.570Z,44.62
2022-08-05T09:38:16.935Z,44.24
2022-08-05T09:40:52.742Z,43.96
2022-08-05T09:43:41.055Z,43.37
2022-08-05T09:46:27.575Z,43.34
2022-08-05T09:49:08.178Z,43.02
2022-08-05T09:51:48.742Z,43.05
2022-08-05T09:54:31.129Z,42.43
2022-08-05T09:57:01.239Z,41.72
2022-08-05T09:59:35.043Z,41.28
2022-08-05T10:02:08.042Z,40.79
2022-08-05T10:04:39.512Z,40.42
2022-08-05T10:07:19.856Z,40.43
2022-08-05T10:10:02.691Z,40.70
2022-08-05T10:12:49.674Z,40.54
2022-08-05T10:15:22.630Z,40.01
2022-08-05T10:18:11.997Z,39.62
2022-08-05T10:20:47.724Z,39.33
2022-08-05T10:23:34.777Z,39.07
2022-08-05T10:26:13.850Z,39.03
2022-08-05T10:28:46.385Z,38.97
2022-08-05T10:33:01.408Z,38.94
2022-08-05T10:34:08.106Z,39.33
2022-08-05T10:36:38.248Z,38.95
2022-08-05T10:39:24.071Z,39.21
2022-08-05T10:42:02.446Z,38.78
2022-08-05T10:44:35.331Z,38.16
2022-08-05T10:47:26.742Z,38.51
2022-08-05T10:50:33.008Z,38.39
2022-08-05T10:52:58.804Z,38.23
2022-08-05T10:55:30.085Z,38.35
2022-08-05T10:58:09.137Z,37.83
2022-08-05T11:00:47.234Z,37.76
2022-08-05T11:03:23.171Z,36.80
2022-08-05T11:06:15.888Z,37.00
2022-08-05T11:09:32.167Z,37.22
2022-08-05T11:12:22.937Z,37.32
2022-08-05T11:15:19.427Z,37.24
2022-08-05T11:18:07.342Z,37.14
2022-08-05T11:20:44.769Z,36.62
2022-08-05T11:24:04.719Z,36.62
2022-08-05T11:26:28.151Z,36.16
2022-08-05T11:29:12.634Z,36.22
2022-08-05T11:31:54.435Z,36.16
2022-08-05T11:34:38.861Z,36.16
2022-08-05T11:38:29.891Z,36.30
2022-08-05T11:40:03.092Z,36.16
2022-08-05T11:42:37.809Z,36.04
2022-08-05T11:45:23.083Z,35.79
2022-08-05T11:47:58.817Z,35.81
2022-08-05T11:50:28.436Z,35.60
2022-08-05T11:53:03.795Z,35.35
2022-08-05T11:55:36.859Z,35.14
2022-08-05T11:58:09.499Z,35.23
2022-08-05T12:00:44.067Z,35.23
2022-08-05T12:03:28.989Z,35.06
2022-08-05T12:06:09.707Z,35.17
2022-08-05T12:08:49.763Z,34.98
2022-08-05T12:11:21.237Z,35.09
2022-08-05T12:13:58.753Z,34.88
2022-08-05T12:16:38.240Z,35.23
2022-08-05T12:19:10.328Z,35.49
2022-08-05T12:21:58.782Z,35.11
2022-08-05T12:24:30.106Z,35.01
2022-08-05T12:27:01.056Z,35.18
2022-08-05T12:29:39.278Z,35.00
2022-08-05T12:32:09.564Z,35.30
2022-08-05T12:34:39.198Z,35.35
2022-08-05T12:37:17.516Z,35.15
2022-08-05T12:39:52.013Z,35.54
2022-08-05T12:42:29.917Z,35.32
2022-08-05T12:45:09.527Z,35.71
2022-08-05T12:47:43.481Z,35.91
2022-08-05T12:50:30.864Z,35.80
2022-08-05T12:52:59.764Z,35.60
2022-08-05T12:55:32.568Z,35.46
2022-08-05T12:58:48.494Z,35.65
2022-08-05T13:02:02.436Z,35.30
2022-08-05T13:03:42.273Z,35.15
2022-08-05T13:06:17.669Z,35.44
2022-08-05T13:08:52.464Z,35.34
2022-08-05T13:11:57.859Z,35.17
2022-08-05T13:14:19.592Z,35.27
2022-08-05T13:16:54.649Z,35.14
2022-08-05T13:19:50.912Z,34.81
2022-08-05T13:22:28.234Z,34.80
2022-08-05T13:25:05.571Z,35.02
2022-08-05T13:27:38.703Z,35.05
2022-08-05T13:30:35.941Z,34.93
2022-08-05T13:33:01.326Z,35.23
2022-08-05T13:35:42.657Z,35.03
2022-08-05T13:38:28.110Z,35.33
2022-08-05T13:41:00.983Z,35.13
2022-08-05T13:43:45.475Z,34.90
2022-08-05T13:46:30.792Z,35.24
2022-08-05T13:49:10.214Z,34.85
2022-08-05T13:51:46.026Z,34.78
2022-08-05T13:54:16.998Z,35.04
2022-08-05T13:56:51.203Z,34.85
2022-08-05T13:59:24.346Z,34.91
2022-08-05T14:01:57.874Z,35.04
2022-08-05T14:04:51.965Z,35.03
2022-08-05T14:07:57.010Z,35.33
2022-08-05T14:10:13.324Z,35.29
2022-08-05T14:12:48.701Z,35.36
2022-08-05T14:16:04.846Z,35.35
2022-08-05T14:18:14.867Z,35.70
2022-08-05T14:20:48.766Z,35.31
2022-08-05T14:23:24.847Z,35.35
2022-08-05T14:25:58.856Z,35.21
2022-08-05T14:28:29.378Z,35.49
2022-08-05T14:30:58.789Z,35.47
2022-08-05T14:33:27.694Z,35.37
2022-08-05T14:36:20.583Z,35.32
2022-08-05T14:38:51.661Z,35.68
2022-08-05T14:41:20.717Z,35.55
2022-08-05T14:43:59.694Z,35.66
2022-08-05T14:46:35.969Z,35.67
2022-08-05T14:49:08.071Z,35.59
2022-08-05T14:51:38.599Z,35.56
2022-08-05T14:54:28.081Z,35.99
2022-08-05T14:56:59.870Z,35.69
2022-08-05T14:59:29.138Z,35.81
2022-08-05T15:01:59.891Z,36.22
2022-08-05T15:04:29.153Z,36.20
2022-08-05T15:06:58.544Z,36.18
2022-08-05T15:09:52.368Z,36.30
2022-08-05T15:12:16.868Z,36.52
2022-08-05T15:14:50.228Z,36.95
2022-08-05T15:17:46.161Z,36.86
2022-08-05T15:20:15.597Z,37.06
2022-08-05T15:22:52.168Z,36.97
2022-08-05T15:25:41.170Z,37.27
2022-08-05T15:28:14.951Z,37.47
2022-08-05T15:30:45.594Z,37.31
2022-08-05T15:33:53.774Z,37.53
2022-08-05T15:36:16.746Z,37.49
2022-08-05T15:38:46.966Z,37.39
2022-08-05T15:41:21.875Z,37.87
2022-08-05T15:43:55.005Z,37.80
2022-08-05T15:46:25.014Z,37.82
2022-08-05T15:48:58.591Z,37.64
2022-08-05T15:52:04.324Z,37.94
2022-08-05T15:54:19.420Z,38.04
2022-08-05T15:56:48.435Z,37.88
2022-08-05T15:59:22.265Z,38.07
2022-08-05T16:01:53.334Z,38.05
2022-08-05T16:04:25.783Z,38.03
2022-08-05T16:06:55.670Z,37.79
2022-08-05T16:09:25.108Z,38.15
2022-08-05T16:22:00.242Z,38.52
2022-08-05T16:24:41.068Z,38.84
2022-08-05T16:27:16.435Z,38.78
2022-08-05T16:29:50.456Z,38.87
2022-08-05T16:32:28.338Z,39.01
2022-08-05T16:34:58.716Z,39.17
2022-08-05T16:38:15.303Z,39.10
2022-08-05T16:40:26.587Z,39.40
2022-08-05T16:42:58.067Z,39.22
2022-08-05T16:46:03.445Z,39.35
2022-08-05T16:48:25.591Z,39.53
2022-08-05T16:50:55.054Z,39.56
2022-08-05T16:54:02.125Z,39.59
2022-08-05T16:56:12.841Z,39.73
2022-08-05T16:58:41.394Z,39.83
2022-08-05T17:01:10.522Z,39.79
2022-08-05T17:03:39.366Z,40.25
2022-08-05T17:06:08.974Z,40.45
2022-08-05T17:08:52.703Z,40.85
2022-08-05T17:11:25.210Z,41.10
2022-08-05T17:14:05.691Z,41.45
2022-08-05T17:16:37.689Z,41.74
2022-08-05T17:19:09.736Z,41.77
2022-08-05T17:21:40.147Z,42.47
2022-08-05T17:24:30.218Z,42.55
2022-08-05T17:26:59.513Z,42.80
2022-08-05T17:29:33.136Z,43.18
2022-08-05T17:32:03.218Z,42.95
2022-08-05T17:34:34.805Z,43.63
2022-08-05T17:37:04.582Z,43.84
2022-08-05T17:39:45.782Z,43.97
2022-08-05T17:42:23.681Z,44.32
2022-08-05T17:44:56.176Z,44.67
2022-08-05T17:47:24.932Z,44.79
2022-08-05T17:50:03.522Z,45.24
2022-08-05T17:52:34.646Z,45.68
2022-08-05T17:55:21.733Z,46.01
2022-08-05T17:57:50.450Z,46.29
2022-08-05T18:00:19.245Z,46.77
2022-08-05T18:02:48.085Z,47.12
2022-08-05T18:05:17.617Z,47.28
2022-08-05T18:07:46.403Z,47.54
2022-08-05T18:10:20.936Z,47.75
2022-08-05T18:12:50.265Z,47.97
2022-08-05T18:15:20.128Z,48.18
2022-08-05T18:18:01.035Z,48.51
2022-08-05T18:20:34.224Z,48.62
2022-08-05T18:23:09.444Z,49.00
2022-08-05T18:25:44.850Z,48.98
2022-08-05T18:28:17.186Z,49.08
2022-08-05T18:30:50.774Z,49.38
2022-08-05T18:33:22.977Z,49.46
2022-08-05T18:36:03.691Z,49.83
2022-08-05T18:38:36.045Z,50.12
2022-08-05T18:41:55.935Z,50.83
2022-08-05T18:43:55.802Z,50.97
2022-08-05T18:46:28.959Z,50.87
2022-08-05T18:49:17.683Z,50.92
2022-08-05T18:52:08.990Z,51.29
2022-08-05T18:54:41.395Z,51.54
2022-08-05T18:57:16.891Z,52.14
2022-08-05T19:00:03.312Z,52.05
2022-08-05T19:02:34.327Z,51.84
2022-08-05T19:06:05.296Z,52.13
2022-08-05T19:07:55.153Z,52.71
2022-08-05T19:10:28.243Z,52.78
2022-08-05T19:12:57.557Z,52.94
2022-08-05T19:16:00.090Z,53.63
2022-08-05T19:18:22.011Z,53.45
2022-08-05T19:20:51.872Z,53.36
2022-08-05T19:24:03.670Z,53.78
2022-08-05T19:26:11.177Z,53.79
2022-08-05T19:28:41.791Z,54.13
2022-08-05T19:31:13.585Z,54.24
2022-08-05T19:33:48.313Z,54.77
2022-08-05T19:36:26.314Z,54.58
2022-08-05T19:38:58.938Z,54.91
2022-08-05T19:42:05.783Z,55.18
2022-08-05T19:44:19.772Z,55.37
2022-08-05T19:46:50.132Z,55.54
2022-08-05T19:49:19.110Z,55.84
2022-08-05T19:52:06.181Z,55.44
2022-08-05T19:54:36.886Z,56.09
2022-08-05T19:57:09.660Z,56.23
2022-08-05T19:59:56.037Z,56.13
2022-08-05T20:02:31.472Z,56.41
2022-08-05T20:05:00.352Z,56.65
2022-08-05T20:07:47.934Z,56.43
2022-08-05T20:10:19.401Z,56.28
2022-08-05T20:12:50.246Z,56.40
2022-08-05T20:15:47.786Z,56.30
2022-08-05T20:18:32.905Z,56.80
2022-08-05T20:20:58.202Z,57.26
2022-08-05T20:23:40.502Z,57.33
2022-08-05T20:26:18.569Z,57.06
2022-08-05T20:28:49.712Z,57.46
2022-08-05T20:31:21.722Z,57.62
2022-08-05T20:33:57.464Z,57.75
2022-08-05T20:36:26.042Z,57.54
2022-08-05T20:38:57.991Z,57.98
2022-08-05T20:41:43.220Z,58.02
2022-08-05T20:44:17.098Z,58.19
2022-08-05T20:46:48.696Z,58.50
2022-08-05T20:49:24.166Z,58.58
2022-08-05T20:51:55.065Z,58.44
2022-08-05T20:54:25.227Z,58.33
2022-08-05T20:56:53.870Z,58.97
2022-08-05T20:59:26.673Z,58.46
2022-08-05T21:01:57.591Z,59.10
2022-08-05T21:04:27.340Z,59.08
2022-08-05T21:06:55.980Z,58.67
2022-08-05T21:09:24.686Z,58.87
2022-08-05T21:12:09.587Z,58.78
2022-08-05T21:14:39.863Z,58.87
2022-08-05T21:17:08.742Z,59.34
2022-08-05T21:19:46.710Z,59.22
2022-08-05T21:22:18.701Z,59.45
2022-08-05T21:24:52.021Z,59.45
2022-08-05T21:27:25.317Z,59.51
2022-08-05T21:29:56.750Z,59.82
2022-08-05T21:32:27.574Z,59.90
2022-08-05T21:35:08.713Z,59.71
2022-08-05T21:37:53.096Z,60.22
2022-08-05T21:40:23.263Z,60.02
2022-08-05T21:42:53.851Z,60.08
2022-08-05T21:45:24.482Z,60.02
2022-08-05T21:47:57.761Z,59.92
2022-08-05T21:50:26.821Z,59.96
2022-08-05T21:52:58.856Z,60.21
2022-08-05T21:56:01.084Z,60.28
2022-08-05T21:58:30.864Z,60.34
2022-08-05T22:01:01.448Z,60.34
2022-08-05T22:03:52.167Z,60.22
2022-08-05T22:06:22.375Z,60.52
2022-08-05T22:08:52.712Z,61.06
2022-08-05T22:11:35.022Z,60.94
2022-08-05T22:14:34.438Z,61.02
2022-08-05T22:16:57.038Z,61.41
2022-08-05T22:20:02.971Z,60.99
2022-08-05T22:22:16.470Z,61.31
2022-08-05T22:25:17.786Z,61.21
2022-08-05T22:28:09.267Z,61.46
2022-08-05T22:30:44.243Z,61.75
2022-08-05T22:33:58.465Z,61.63
2022-08-05T22:36:15.126Z,61.92
2022-08-05T22:38:47.971Z,61.97
2022-08-05T22:41:26.504Z,62.33
2022-08-05T22:44:08.892Z,62.17
2022-08-05T22:46:39.524Z,62.22
2022-08-05T22:49:12.038Z,62.21
2022-08-05T22:52:04.498Z,62.66
2022-08-05T22:54:35.948Z,62.47
2022-08-05T22:57:06.673Z,62.54
2022-08-05T22:59:45.781Z,62.74
2022-08-05T23:02:29.485Z,63.10
2022-08-05T23:05:01.412Z,63.12
2022-08-05T23:07:48.550Z,62.88
2022-08-05T23:10:19.512Z,63.05
2022-08-05T23:12:51.367Z,63.04
2022-08-05T23:15:26.982Z,63.60
2022-08-05T23:18:01.637Z,63.60
2022-08-05T23:20:32.580Z,63.42
2022-08-05T23:23:03.493Z,63.52
2022-08-05T23:25:53.363Z,63.74
2022-08-05T23:28:28.610Z,63.72
2022-08-05T23:31:15.853Z,63.74
2022-08-05T23:34:04.395Z,63.92
2022-08-05T23:36:40.261Z,64.14
2022-08-05T23:39:17.192Z,64.21
2022-08-05T23:41:54.008Z,64.58
2022-08-05T23:44:31.399Z,64.55
2022-08-05T23:47:02.428Z,64.20
2022-08-05T23:49:45.675Z,64.40
2022-08-05T23:52:28.701Z,64.68
2022-08-05T23:55:01.347Z,64.39
2022-08-05T23:57:30.096Z,64.58
